FAD508 OMDB-OERK
Flight info
| Callsign | FAD508 |
|---|---|
| Flight time | 1h 24m |
| Altitude | 32000 |
| Route | SENPA N571 ALPOB L768 ULADA T136 OTISU N112 GETOT Q212 MEMGO |
| Aircraft | A320/M-SDE3FGHIRWY/LB1 |
Departure
| Time | 2026-04-25 06:31 |
|---|---|
| Airport | Dubai International Airport (OMDB) |
Arrival
| Time | 2026-04-25 07:55 |
|---|---|
| Airport | King Khalid International Airport (OERK) |
| Time | Latitude | Longitude | Altitude | Speed | Heading |
|---|---|---|---|---|---|
| 2026-04-25 05:56 | 25.25923 | 55.34454 | 25 ft | 0 kts | 211° |
| 2026-04-25 06:07 | 25.25924 | 55.34454 | 22 ft | 0 kts | 211° |
| 2026-04-25 06:18 | 25.25930 | 55.34458 | 23 ft | 4 kts | 210° |
| 2026-04-25 06:18 | 25.25954 | 55.34471 | 24 ft | 4 kts | 204° |
| 2026-04-25 06:18 | 25.25974 | 55.34482 | 26 ft | 3 kts | 211° |
| 2026-04-25 06:18 | 25.25997 | 55.34491 | 24 ft | 4 kts | 166° |
| 2026-04-25 06:19 | 25.26015 | 55.34477 | 24 ft | 3 kts | 121° |
| 2026-04-25 06:19 | 25.26023 | 55.34463 | 22 ft | 0 kts | 121° |
| 2026-04-25 06:24 | 25.26010 | 55.34487 | 24 ft | 14 kts | 120° |
| 2026-04-25 06:24 | 25.25945 | 55.34603 | 22 ft | 18 kts | 122° |
| 2026-04-25 06:24 | 25.25883 | 55.34714 | 22 ft | 16 kts | 122° |
| 2026-04-25 06:25 | 25.25827 | 55.34812 | 22 ft | 14 kts | 122° |
| 2026-04-25 06:25 | 25.25757 | 55.34937 | 22 ft | 23 kts | 122° |
| 2026-04-25 06:25 | 25.25674 | 55.35092 | 22 ft | 24 kts | 121° |
| 2026-04-25 06:25 | 25.25585 | 55.35250 | 22 ft | 25 kts | 122° |
| 2026-04-25 06:26 | 25.25497 | 55.35414 | 22 ft | 26 kts | 112° |
| 2026-04-25 06:26 | 25.25472 | 55.35614 | 22 ft | 26 kts | 103° |
| 2026-04-25 06:26 | 25.25384 | 55.35792 | 22 ft | 27 kts | 121° |
| 2026-04-25 06:26 | 25.25283 | 55.35972 | 22 ft | 28 kts | 122° |
| 2026-04-25 06:27 | 25.25178 | 55.36158 | 25 ft | 29 kts | 122° |
| 2026-04-25 06:27 | 25.25076 | 55.36340 | 24 ft | 26 kts | 122° |
| 2026-04-25 06:27 | 25.24977 | 55.36515 | 24 ft | 27 kts | 122° |
| 2026-04-25 06:27 | 25.24881 | 55.36700 | 22 ft | 28 kts | 109° |
| 2026-04-25 06:28 | 25.24823 | 55.36908 | 22 ft | 29 kts | 119° |
| 2026-04-25 06:28 | 25.24720 | 55.37092 | 22 ft | 29 kts | 122° |
| 2026-04-25 06:28 | 25.24611 | 55.37283 | 22 ft | 29 kts | 122° |
| 2026-04-25 06:28 | 25.24505 | 55.37472 | 22 ft | 29 kts | 122° |
| 2026-04-25 06:29 | 25.24397 | 55.37664 | 22 ft | 30 kts | 122° |
| 2026-04-25 06:29 | 25.24300 | 55.37838 | 22 ft | 26 kts | 122° |
| 2026-04-25 06:29 | 25.24213 | 55.37991 | 24 ft | 18 kts | 119° |
| 2026-04-25 06:29 | 25.24258 | 55.38093 | 23 ft | 17 kts | 31° |
| 2026-04-25 06:30 | 25.24365 | 55.38091 | 22 ft | 19 kts | 308° |
| 2026-04-25 06:30 | 25.24501 | 55.37844 | 22 ft | 68 kts | 302° |
| 2026-04-25 06:30 | 25.24859 | 55.37199 | 22 ft | 127 kts | 301° |
| 2026-04-25 06:30 | 25.25407 | 55.36217 | 26 ft | 172 kts | 302° |
| 2026-04-25 06:31 | 25.26061 | 55.35090 | 571 ft | 174 kts | 303° |
| 2026-04-25 06:31 | 25.26746 | 55.33982 | 1110 ft | 177 kts | 304° |
| 2026-04-25 06:31 | 25.27455 | 55.32848 | 1617 ft | 181 kts | 305° |
| 2026-04-25 06:31 | 25.28174 | 55.31690 | 2151 ft | 184 kts | 306° |
| 2026-04-25 06:32 | 25.28898 | 55.30516 | 2688 ft | 186 kts | 305° |
| 2026-04-25 06:32 | 25.29505 | 55.29247 | 3248 ft | 190 kts | 288° |
| 2026-04-25 06:32 | 25.29566 | 55.27719 | 3461 ft | 213 kts | 261° |
| 2026-04-25 06:32 | 25.29341 | 55.26008 | 3638 ft | 237 kts | 268° |
| 2026-04-25 06:33 | 25.29288 | 55.24093 | 3923 ft | 260 kts | 271° |
| 2026-04-25 06:33 | 25.29290 | 55.22054 | 4498 ft | 269 kts | 271° |
| 2026-04-25 06:33 | 25.29290 | 55.19975 | 5240 ft | 272 kts | 271° |
| 2026-04-25 06:33 | 25.29275 | 55.17882 | 6010 ft | 273 kts | 270° |
| 2026-04-25 06:34 | 25.29241 | 55.15776 | 6771 ft | 275 kts | 269° |
| 2026-04-25 06:34 | 25.29191 | 55.13653 | 7489 ft | 278 kts | 269° |
| 2026-04-25 06:34 | 25.29131 | 55.11507 | 8209 ft | 281 kts | 268° |
| 2026-04-25 06:34 | 25.29066 | 55.09342 | 8941 ft | 283 kts | 268° |
| 2026-04-25 06:35 | 25.28999 | 55.07157 | 9675 ft | 286 kts | 267° |
| 2026-04-25 06:35 | 25.28929 | 55.04934 | 10242 ft | 296 kts | 267° |
| 2026-04-25 06:35 | 25.28854 | 55.02610 | 10394 ft | 318 kts | 267° |
| 2026-04-25 06:35 | 25.28771 | 55.00045 | 10521 ft | 341 kts | 267° |
| 2026-04-25 06:36 | 25.28685 | 54.97393 | 10776 ft | 356 kts | 267° |
| 2026-04-25 06:36 | 25.28597 | 54.94636 | 11298 ft | 362 kts | 267° |
| 2026-04-25 06:36 | 25.28513 | 54.91843 | 11886 ft | 366 kts | 267° |
| 2026-04-25 06:36 | 25.28432 | 54.89020 | 12484 ft | 369 kts | 267° |
| 2026-04-25 06:37 | 25.28350 | 54.86172 | 13084 ft | 373 kts | 267° |
| 2026-04-25 06:37 | 25.28266 | 54.83295 | 13676 ft | 377 kts | 267° |
| 2026-04-25 06:37 | 25.28180 | 54.80390 | 14211 ft | 380 kts | 267° |
| 2026-04-25 06:37 | 25.28094 | 54.77464 | 14751 ft | 382 kts | 267° |
| 2026-04-25 06:38 | 25.28187 | 54.74519 | 15274 ft | 386 kts | 276° |
| 2026-04-25 06:38 | 25.28768 | 54.71607 | 15800 ft | 390 kts | 284° |
| 2026-04-25 06:38 | 25.29507 | 54.68717 | 16322 ft | 392 kts | 284° |
| 2026-04-25 06:38 | 25.30249 | 54.65807 | 16833 ft | 395 kts | 284° |
| 2026-04-25 06:39 | 25.30994 | 54.62879 | 17337 ft | 397 kts | 283° |
| 2026-04-25 06:39 | 25.31741 | 54.59935 | 17849 ft | 399 kts | 283° |
| 2026-04-25 06:39 | 25.32487 | 54.56974 | 18321 ft | 401 kts | 283° |
| 2026-04-25 06:39 | 25.33234 | 54.53997 | 18758 ft | 403 kts | 283° |
| 2026-04-25 06:40 | 25.33997 | 54.51011 | 19194 ft | 405 kts | 284° |
| 2026-04-25 06:40 | 25.34794 | 54.48022 | 19620 ft | 406 kts | 284° |
| 2026-04-25 06:40 | 25.35614 | 54.45027 | 20048 ft | 408 kts | 285° |
| 2026-04-25 06:40 | 25.36448 | 54.42020 | 20477 ft | 409 kts | 285° |
| 2026-04-25 06:41 | 25.37281 | 54.39007 | 20902 ft | 411 kts | 285° |
| 2026-04-25 06:41 | 25.38108 | 54.35977 | 21333 ft | 412 kts | 284° |
| 2026-04-25 06:41 | 25.38926 | 54.32938 | 21752 ft | 414 kts | 284° |
| 2026-04-25 06:41 | 25.39746 | 54.29881 | 22170 ft | 415 kts | 284° |
| 2026-04-25 06:42 | 25.40563 | 54.26816 | 22583 ft | 417 kts | 284° |
| 2026-04-25 06:42 | 25.41354 | 54.23727 | 22985 ft | 418 kts | 283° |
| 2026-04-25 06:42 | 25.42123 | 54.20620 | 23375 ft | 419 kts | 283° |
| 2026-04-25 06:42 | 25.42885 | 54.17500 | 23714 ft | 421 kts | 283° |
| 2026-04-25 06:43 | 25.43648 | 54.14368 | 24033 ft | 423 kts | 283° |
| 2026-04-25 06:43 | 25.44417 | 54.11220 | 24331 ft | 424 kts | 283° |
| 2026-04-25 06:43 | 25.45191 | 54.08068 | 24649 ft | 426 kts | 283° |
| 2026-04-25 06:43 | 25.45960 | 54.04896 | 24961 ft | 427 kts | 283° |
| 2026-04-25 06:44 | 25.46725 | 54.01715 | 25274 ft | 429 kts | 283° |
| 2026-04-25 06:44 | 25.47491 | 53.98521 | 25593 ft | 430 kts | 283° |
| 2026-04-25 06:44 | 25.48259 | 53.95314 | 25888 ft | 432 kts | 283° |
| 2026-04-25 06:44 | 25.49028 | 53.92098 | 26190 ft | 434 kts | 283° |
| 2026-04-25 06:45 | 25.49792 | 53.88909 | 26486 ft | 435 kts | 283° |
| 2026-04-25 06:45 | 25.50568 | 53.85667 | 26782 ft | 436 kts | 283° |
| 2026-04-25 06:45 | 25.51345 | 53.82416 | 27080 ft | 438 kts | 283° |
| 2026-04-25 06:45 | 25.52125 | 53.79156 | 27352 ft | 439 kts | 283° |
| 2026-04-25 06:46 | 25.52909 | 53.75884 | 27630 ft | 440 kts | 283° |
| 2026-04-25 06:46 | 25.53695 | 53.72600 | 27871 ft | 443 kts | 283° |
| 2026-04-25 06:46 | 25.54489 | 53.69282 | 27997 ft | 448 kts | 283° |
| 2026-04-25 06:46 | 25.55292 | 53.65935 | 28142 ft | 452 kts | 283° |
| 2026-04-25 06:47 | 25.56101 | 53.62557 | 28264 ft | 456 kts | 283° |
| 2026-04-25 06:47 | 25.56914 | 53.59151 | 28389 ft | 459 kts | 283° |
| 2026-04-25 06:47 | 25.57729 | 53.55723 | 28606 ft | 461 kts | 283° |
| 2026-04-25 06:47 | 25.58544 | 53.52289 | 28906 ft | 461 kts | 283° |
| 2026-04-25 06:48 | 25.59359 | 53.48861 | 29244 ft | 459 kts | 283° |
| 2026-04-25 06:48 | 25.60170 | 53.45447 | 29587 ft | 458 kts | 283° |
| 2026-04-25 06:48 | 25.60979 | 53.42037 | 29934 ft | 457 kts | 283° |
| 2026-04-25 06:48 | 25.61787 | 53.38633 | 30246 ft | 456 kts | 283° |
| 2026-04-25 06:49 | 25.62591 | 53.35244 | 30544 ft | 454 kts | 283° |
| 2026-04-25 06:49 | 25.63390 | 53.31865 | 30851 ft | 453 kts | 283° |
| 2026-04-25 06:49 | 25.64186 | 53.28493 | 31153 ft | 452 kts | 283° |
| 2026-04-25 06:49 | 25.64976 | 53.25132 | 31454 ft | 450 kts | 282° |
| 2026-04-25 06:50 | 25.65764 | 53.21776 | 31743 ft | 449 kts | 282° |
| 2026-04-25 06:50 | 25.66549 | 53.18431 | 31945 ft | 448 kts | 282° |
| 2026-04-25 06:50 | 25.67332 | 53.15091 | 31971 ft | 447 kts | 282° |
| 2026-04-25 06:51 | 25.68630 | 53.09559 | 31969 ft | 446 kts | 282° |
| 2026-04-25 06:51 | 25.70536 | 53.01817 | 31973 ft | 447 kts | 288° |
| 2026-04-25 06:52 | 25.73308 | 52.95600 | 31973 ft | 451 kts | 294° |
| 2026-04-25 06:52 | 25.75735 | 52.90483 | 31972 ft | 451 kts | 294° |
| 2026-04-25 06:53 | 25.78648 | 52.84327 | 31976 ft | 451 kts | 294° |
| 2026-04-25 06:53 | 25.81551 | 52.78162 | 31974 ft | 450 kts | 294° |
| 2026-04-25 06:54 | 25.84450 | 52.71995 | 31966 ft | 451 kts | 294° |
| 2026-04-25 06:54 | 25.87356 | 52.65820 | 31972 ft | 451 kts | 294° |
| 2026-04-25 06:55 | 25.90260 | 52.59634 | 31973 ft | 451 kts | 294° |
| 2026-04-25 06:55 | 25.93035 | 52.53439 | 31976 ft | 451 kts | 292° |
| 2026-04-25 06:56 | 25.95754 | 52.47163 | 31995 ft | 451 kts | 292° |
| 2026-04-25 06:56 | 25.98490 | 52.40900 | 31991 ft | 451 kts | 292° |
| 2026-04-25 06:57 | 26.01263 | 52.34651 | 31986 ft | 451 kts | 292° |
| 2026-04-25 06:57 | 26.04064 | 52.28414 | 31985 ft | 451 kts | 292° |
| 2026-04-25 06:58 | 26.06860 | 52.22171 | 31992 ft | 451 kts | 292° |
| 2026-04-25 06:58 | 26.09639 | 52.15923 | 32014 ft | 450 kts | 292° |
| 2026-04-25 06:59 | 26.12412 | 52.09665 | 31996 ft | 451 kts | 292° |
| 2026-04-25 06:59 | 26.15190 | 52.03402 | 31987 ft | 452 kts | 292° |
| 2026-04-25 07:00 | 26.17967 | 51.97132 | 31990 ft | 452 kts | 292° |
| 2026-04-25 07:00 | 26.20777 | 51.90879 | 31991 ft | 451 kts | 292° |
| 2026-04-25 07:01 | 26.23560 | 51.84618 | 32010 ft | 451 kts | 292° |
| 2026-04-25 07:01 | 26.26318 | 51.78333 | 31994 ft | 452 kts | 292° |
| 2026-04-25 07:02 | 26.29111 | 51.72047 | 31989 ft | 453 kts | 292° |
| 2026-04-25 07:02 | 26.31922 | 51.65767 | 31985 ft | 453 kts | 292° |
| 2026-04-25 07:03 | 26.34716 | 51.59518 | 31985 ft | 453 kts | 292° |
| 2026-04-25 07:03 | 26.37534 | 51.53178 | 31986 ft | 452 kts | 290° |
| 2026-04-25 07:04 | 26.39715 | 51.46646 | 31986 ft | 450 kts | 285° |
| 2026-04-25 07:04 | 26.41790 | 51.40117 | 31984 ft | 450 kts | 285° |
| 2026-04-25 07:05 | 26.43886 | 51.33538 | 31987 ft | 450 kts | 285° |
| 2026-04-25 07:05 | 26.45984 | 51.26961 | 31982 ft | 450 kts | 285° |
| 2026-04-25 07:06 | 26.48091 | 51.20374 | 31978 ft | 451 kts | 285° |
| 2026-04-25 07:06 | 26.50192 | 51.13789 | 32003 ft | 451 kts | 285° |
| 2026-04-25 07:07 | 26.52291 | 51.07198 | 31996 ft | 451 kts | 285° |
| 2026-04-25 07:07 | 26.54383 | 51.00598 | 31990 ft | 450 kts | 285° |
| 2026-04-25 07:08 | 26.56476 | 50.94002 | 31985 ft | 450 kts | 285° |
| 2026-04-25 07:08 | 26.58556 | 50.87413 | 31981 ft | 450 kts | 285° |
| 2026-04-25 07:09 | 26.60599 | 50.80809 | 31986 ft | 449 kts | 285° |
| 2026-04-25 07:09 | 26.62627 | 50.74210 | 32005 ft | 449 kts | 284° |
| 2026-04-25 07:10 | 26.64654 | 50.67614 | 32007 ft | 448 kts | 284° |
| 2026-04-25 07:10 | 26.66629 | 50.61015 | 32009 ft | 447 kts | 284° |
| 2026-04-25 07:11 | 26.68570 | 50.54410 | 32011 ft | 447 kts | 284° |
| 2026-04-25 07:11 | 26.70505 | 50.47818 | 32008 ft | 446 kts | 283° |
| 2026-04-25 07:12 | 26.72293 | 50.41187 | 32008 ft | 445 kts | 282° |
| 2026-04-25 07:12 | 26.74477 | 50.31176 | 32025 ft | 437 kts | 270° |
| 2026-04-25 07:13 | 26.73812 | 50.24571 | 32012 ft | 429 kts | 251° |
| 2026-04-25 07:13 | 26.71193 | 50.18606 | 32008 ft | 428 kts | 240° |
| 2026-04-25 07:14 | 26.68178 | 50.12853 | 32004 ft | 429 kts | 240° |
| 2026-04-25 07:14 | 26.65150 | 50.07107 | 32008 ft | 429 kts | 240° |
| 2026-04-25 07:15 | 26.62119 | 50.01353 | 32014 ft | 429 kts | 240° |
| 2026-04-25 07:15 | 26.59095 | 49.95598 | 32019 ft | 430 kts | 240° |
| 2026-04-25 07:16 | 26.56051 | 49.89803 | 32021 ft | 430 kts | 240° |
| 2026-04-25 07:16 | 26.53021 | 49.84041 | 32013 ft | 430 kts | 239° |
| 2026-04-25 07:17 | 26.50050 | 49.78296 | 32018 ft | 430 kts | 244° |
| 2026-04-25 07:17 | 26.48050 | 49.71999 | 32016 ft | 431 kts | 251° |
| 2026-04-25 07:18 | 26.46180 | 49.65634 | 31980 ft | 432 kts | 250° |
| 2026-04-25 07:18 | 26.44306 | 49.59262 | 31982 ft | 432 kts | 250° |
| 2026-04-25 07:19 | 26.42426 | 49.52885 | 31987 ft | 433 kts | 250° |
| 2026-04-25 07:19 | 26.40542 | 49.46507 | 31987 ft | 433 kts | 251° |
| 2026-04-25 07:20 | 26.38662 | 49.40131 | 32010 ft | 433 kts | 251° |
| 2026-04-25 07:20 | 26.36781 | 49.33764 | 32013 ft | 432 kts | 251° |
| 2026-04-25 07:21 | 26.34895 | 49.27406 | 32010 ft | 432 kts | 251° |
| 2026-04-25 07:21 | 26.33013 | 49.21050 | 32012 ft | 431 kts | 250° |
| 2026-04-25 07:22 | 26.31141 | 49.14755 | 32009 ft | 431 kts | 250° |
| 2026-04-25 07:22 | 26.29599 | 49.08307 | 32013 ft | 433 kts | 262° |
| 2026-04-25 07:23 | 26.29090 | 49.01614 | 32011 ft | 433 kts | 262° |
| 2026-04-25 07:23 | 26.28579 | 48.94922 | 32008 ft | 433 kts | 262° |
| 2026-04-25 07:24 | 26.28066 | 48.88243 | 32009 ft | 433 kts | 262° |
| 2026-04-25 07:24 | 26.27542 | 48.81560 | 32011 ft | 433 kts | 262° |
| 2026-04-25 07:25 | 26.27019 | 48.74881 | 32010 ft | 433 kts | 262° |
| 2026-04-25 07:25 | 26.26495 | 48.68191 | 32013 ft | 433 kts | 262° |
| 2026-04-25 07:26 | 26.25965 | 48.61506 | 32013 ft | 433 kts | 262° |
| 2026-04-25 07:26 | 26.25436 | 48.54817 | 32016 ft | 434 kts | 262° |
| 2026-04-25 07:27 | 26.24177 | 48.48311 | 32014 ft | 429 kts | 247° |
| 2026-04-25 07:27 | 26.21689 | 48.42270 | 32026 ft | 429 kts | 244° |
| 2026-04-25 07:28 | 26.19179 | 48.36239 | 32026 ft | 429 kts | 244° |
| 2026-04-25 07:28 | 26.16679 | 48.30253 | 32034 ft | 429 kts | 244° |
| 2026-04-25 07:29 | 26.14152 | 48.24225 | 32034 ft | 430 kts | 244° |
| 2026-04-25 07:29 | 26.11577 | 48.18227 | 32034 ft | 429 kts | 239° |
| 2026-04-25 07:30 | 26.07995 | 48.12938 | 32042 ft | 428 kts | 231° |
| 2026-04-25 07:30 | 26.04201 | 48.07829 | 32042 ft | 428 kts | 231° |
| 2026-04-25 07:31 | 26.00412 | 48.02720 | 32039 ft | 428 kts | 231° |
| 2026-04-25 07:31 | 25.96620 | 47.97618 | 32047 ft | 428 kts | 231° |
| 2026-04-25 07:32 | 25.92831 | 47.92522 | 32054 ft | 428 kts | 231° |
| 2026-04-25 07:32 | 25.89038 | 47.87432 | 32060 ft | 427 kts | 231° |
| 2026-04-25 07:33 | 25.85241 | 47.82349 | 31875 ft | 428 kts | 231° |
| 2026-04-25 07:33 | 25.83355 | 47.79824 | 30733 ft | 423 kts | 231° |
| 2026-04-25 07:33 | 25.81468 | 47.77299 | 28918 ft | 428 kts | 230° |
| 2026-04-25 07:34 | 25.79550 | 47.74731 | 26982 ft | 436 kts | 231° |
| 2026-04-25 07:34 | 25.77614 | 47.72138 | 25412 ft | 435 kts | 231° |
| 2026-04-25 07:34 | 25.75689 | 47.69561 | 24029 ft | 431 kts | 231° |
| 2026-04-25 07:34 | 25.73798 | 47.67033 | 23015 ft | 418 kts | 231° |
| 2026-04-25 07:35 | 25.71988 | 47.64622 | 22452 ft | 396 kts | 231° |
| 2026-04-25 07:35 | 25.70268 | 47.62331 | 21813 ft | 379 kts | 231° |
| 2026-04-25 07:35 | 25.68610 | 47.60116 | 21219 ft | 371 kts | 231° |
| 2026-04-25 07:35 | 25.66967 | 47.57917 | 20637 ft | 369 kts | 231° |
| 2026-04-25 07:36 | 25.65359 | 47.55767 | 20074 ft | 366 kts | 232° |
| 2026-04-25 07:36 | 25.63741 | 47.53601 | 19547 ft | 365 kts | 232° |
| 2026-04-25 07:36 | 25.62171 | 47.51402 | 18999 ft | 362 kts | 237° |
| 2026-04-25 07:36 | 25.60913 | 47.49001 | 18495 ft | 359 kts | 243° |
| 2026-04-25 07:37 | 25.59770 | 47.46557 | 17953 ft | 357 kts | 243° |
| 2026-04-25 07:37 | 25.58629 | 47.44135 | 17463 ft | 353 kts | 243° |
| 2026-04-25 07:37 | 25.57496 | 47.41737 | 16996 ft | 350 kts | 243° |
| 2026-04-25 07:37 | 25.56372 | 47.39357 | 16532 ft | 348 kts | 243° |
| 2026-04-25 07:38 | 25.55252 | 47.36987 | 16065 ft | 346 kts | 243° |
| 2026-04-25 07:38 | 25.54139 | 47.34631 | 15598 ft | 345 kts | 243° |
| 2026-04-25 07:38 | 25.53031 | 47.32283 | 15109 ft | 343 kts | 243° |
| 2026-04-25 07:38 | 25.51928 | 47.29944 | 14611 ft | 342 kts | 243° |
| 2026-04-25 07:39 | 25.50825 | 47.27614 | 14095 ft | 342 kts | 243° |
| 2026-04-25 07:39 | 25.49723 | 47.25284 | 13539 ft | 342 kts | 243° |
| 2026-04-25 07:39 | 25.48620 | 47.22957 | 12996 ft | 340 kts | 243° |
| 2026-04-25 07:39 | 25.47526 | 47.20644 | 12446 ft | 339 kts | 243° |
| 2026-04-25 07:40 | 25.46549 | 47.18275 | 11920 ft | 340 kts | 251° |
| 2026-04-25 07:40 | 25.45779 | 47.15733 | 11752 ft | 355 kts | 251° |
| 2026-04-25 07:40 | 25.44976 | 47.13137 | 11510 ft | 357 kts | 251° |
| 2026-04-25 07:40 | 25.44161 | 47.10541 | 11281 ft | 357 kts | 250° |
| 2026-04-25 07:41 | 25.43341 | 47.07950 | 11036 ft | 357 kts | 250° |
| 2026-04-25 07:41 | 25.42518 | 47.05358 | 10801 ft | 356 kts | 250° |
| 2026-04-25 07:41 | 25.41692 | 47.02785 | 10567 ft | 356 kts | 248° |
| 2026-04-25 07:41 | 25.41002 | 47.01148 | 10413 ft | 353 kts | 241° |
| 2026-04-25 07:42 | 25.39738 | 46.98821 | 10183 ft | 354 kts | 239° |
| 2026-04-25 07:42 | 25.38465 | 46.96504 | 9955 ft | 348 kts | 239° |
| 2026-04-25 07:42 | 25.37240 | 46.94267 | 9824 ft | 332 kts | 239° |
| 2026-04-25 07:42 | 25.36073 | 46.92130 | 9696 ft | 318 kts | 239° |
| 2026-04-25 07:43 | 25.34953 | 46.90075 | 9570 ft | 305 kts | 239° |
| 2026-04-25 07:43 | 25.33879 | 46.88107 | 9442 ft | 294 kts | 239° |
| 2026-04-25 07:43 | 25.32840 | 46.86214 | 9315 ft | 282 kts | 238° |
| 2026-04-25 07:43 | 25.31700 | 46.84481 | 9191 ft | 279 kts | 225° |
| 2026-04-25 07:44 | 25.30161 | 46.83211 | 9067 ft | 275 kts | 212° |
| 2026-04-25 07:44 | 25.28654 | 46.81924 | 8947 ft | 273 kts | 228° |
| 2026-04-25 07:44 | 25.27668 | 46.80144 | 8828 ft | 273 kts | 250° |
| 2026-04-25 07:44 | 25.27392 | 46.78068 | 8709 ft | 277 kts | 267° |
| 2026-04-25 07:45 | 25.27406 | 46.75952 | 8583 ft | 275 kts | 269° |
| 2026-04-25 07:45 | 25.27429 | 46.73818 | 8466 ft | 279 kts | 268° |
| 2026-04-25 07:45 | 25.27458 | 46.71692 | 8330 ft | 277 kts | 268° |
| 2026-04-25 07:45 | 25.27487 | 46.69562 | 8220 ft | 279 kts | 269° |
| 2026-04-25 07:46 | 25.27511 | 46.67415 | 8101 ft | 278 kts | 269° |
| 2026-04-25 07:46 | 25.27533 | 46.65291 | 7976 ft | 276 kts | 267° |
| 2026-04-25 07:46 | 25.27555 | 46.63174 | 7859 ft | 276 kts | 267° |
| 2026-04-25 07:46 | 25.27576 | 46.61054 | 7739 ft | 275 kts | 267° |
| 2026-04-25 07:47 | 25.27600 | 46.58971 | 7619 ft | 275 kts | 267° |
| 2026-04-25 07:47 | 25.27543 | 46.56869 | 7491 ft | 269 kts | 256° |
| 2026-04-25 07:47 | 25.26901 | 46.55010 | 7372 ft | 252 kts | 235° |
| 2026-04-25 07:47 | 25.25802 | 46.53588 | 7242 ft | 238 kts | 218° |
| 2026-04-25 07:48 | 25.24417 | 46.52664 | 7092 ft | 230 kts | 201° |
| 2026-04-25 07:48 | 25.22896 | 46.52267 | 6967 ft | 222 kts | 185° |
| 2026-04-25 07:48 | 25.21372 | 46.52375 | 6711 ft | 223 kts | 169° |
| 2026-04-25 07:48 | 25.19886 | 46.53020 | 6142 ft | 238 kts | 154° |
| 2026-04-25 07:49 | 25.18416 | 46.53954 | 5634 ft | 246 kts | 153° |
| 2026-04-25 07:49 | 25.16966 | 46.54884 | 5273 ft | 238 kts | 153° |
| 2026-04-25 07:49 | 25.15568 | 46.55775 | 5051 ft | 223 kts | 154° |
| 2026-04-25 07:49 | 25.14291 | 46.56588 | 5031 ft | 201 kts | 154° |
| 2026-04-25 07:50 | 25.13123 | 46.57329 | 5070 ft | 190 kts | 156° |
| 2026-04-25 07:50 | 25.12001 | 46.58040 | 5052 ft | 185 kts | 156° |
| 2026-04-25 07:50 | 25.10900 | 46.58738 | 5024 ft | 181 kts | 156° |
| 2026-04-25 07:50 | 25.09815 | 46.59426 | 4876 ft | 178 kts | 156° |
| 2026-04-25 07:51 | 25.08753 | 46.60100 | 4676 ft | 171 kts | 155° |
| 2026-04-25 07:51 | 25.07750 | 46.60737 | 4466 ft | 163 kts | 155° |
| 2026-04-25 07:51 | 25.06796 | 46.61342 | 4270 ft | 154 kts | 155° |
| 2026-04-25 07:51 | 25.05875 | 46.61925 | 4082 ft | 152 kts | 155° |
| 2026-04-25 07:52 | 25.04957 | 46.62506 | 3880 ft | 152 kts | 154° |
| 2026-04-25 07:52 | 25.04050 | 46.63081 | 3696 ft | 147 kts | 151° |
| 2026-04-25 07:52 | 25.03177 | 46.63634 | 3515 ft | 143 kts | 150° |
| 2026-04-25 07:52 | 25.02316 | 46.64180 | 3335 ft | 142 kts | 150° |
| 2026-04-25 07:53 | 25.01459 | 46.64723 | 3152 ft | 142 kts | 150° |
| 2026-04-25 07:53 | 25.00590 | 46.65270 | 2949 ft | 144 kts | 150° |
| 2026-04-25 07:53 | 24.99721 | 46.65820 | 2733 ft | 143 kts | 150° |
| 2026-04-25 07:53 | 24.98857 | 46.66370 | 2505 ft | 143 kts | 149° |
| 2026-04-25 07:54 | 24.97989 | 46.66921 | 2313 ft | 143 kts | 148° |
| 2026-04-25 07:54 | 24.97139 | 46.67465 | 2137 ft | 140 kts | 150° |
| 2026-04-25 07:54 | 24.96336 | 46.67973 | 2079 ft | 122 kts | 150° |
| 2026-04-25 07:54 | 24.95730 | 46.68353 | 2074 ft | 76 kts | 150° |
| 2026-04-25 07:55 | 24.95371 | 46.68579 | 2076 ft | 52 kts | 150° |
| 2026-04-25 07:55 | 24.95098 | 46.68753 | 2076 ft | 31 kts | 145° |
| 2026-04-25 07:55 | 24.94979 | 46.68924 | 2073 ft | 28 kts | 114° |
| 2026-04-25 07:55 | 24.94996 | 46.69110 | 2074 ft | 21 kts | 45° |
| 2026-04-25 07:56 | 24.95126 | 46.69078 | 2076 ft | 20 kts | 329° |
| 2026-04-25 07:56 | 24.95242 | 46.69001 | 2076 ft | 19 kts | 329° |
| 2026-04-25 07:56 | 24.95352 | 46.68932 | 2074 ft | 17 kts | 332° |
| 2026-04-25 07:56 | 24.95442 | 46.68876 | 2076 ft | 14 kts | 329° |
| 2026-04-25 07:57 | 24.95520 | 46.68833 | 2076 ft | 12 kts | 353° |
| 2026-04-25 07:57 | 24.95571 | 46.68881 | 2076 ft | 9 kts | 63° |
| 2026-04-25 07:57 | 24.95601 | 46.68938 | 2075 ft | 8 kts | 60° |
| 2026-04-25 07:57 | 24.95638 | 46.69008 | 2076 ft | 13 kts | 60° |
| 2026-04-25 07:58 | 24.95702 | 46.69040 | 2075 ft | 10 kts | 336° |
| 2026-04-25 07:58 | 24.95725 | 46.69027 | 2073 ft | 3 kts | 335° |
| 2026-04-25 07:58 | 24.95762 | 46.69041 | 2075 ft | 7 kts | 46° |
| 2026-04-25 07:58 | 24.95784 | 46.69081 | 2074 ft | 5 kts | 60° |
| 2026-04-25 07:59 | 24.95797 | 46.69106 | 2076 ft | 0 kts | 60° |